Renville, MN (56284)

10:31 PM CDT on August 28, 2014 (GMT -0500)
SW of Prinsburg | Change Station
CLOSE
Current Station
Personal Weather Station
Location: Prinsburg, MN
Elevation: 1071 ft
Nearby Weather Stations

Elev 1071 ft 44.91 °N, 95.23 °W | Updated 55 seconds ago

Overcast
Overcast
66.1 °F
Feels Like 66.1 °F
N
10.0
Wind Variable Wind from ENE
Gusts 11.5 mph

Today
High -- | Low -- °F
--% Chance of Precip.
Yesterday
High -- | Low -- °F
Precip. -- in
6:38 AM 8:04 PM
Waxing Crescent, 11% visible
Pressure 29.88 in
Visibility 10.0 miles
Clouds Overcast 600 ft
Dew Point 55 °F
Humidity 67%
Rainfall 0.13 in
Snow Depth Not available.
UV 0 out of 12
Pollen 7.00 out of 12
Air Quality Not available.
Flu Activity Not available.
METAR KOVL 290313Z AUTO 12007KT 10SM OVC006 20/18 A2988 RMK AO2

More Conditions Fewer Conditions

Pressure 29.88 in
Visibility 10.0 miles
Clouds Overcast 600 ft
Dew Point 55 °F
Humidity 67%
Rainfall 0.13 in
Snow Depth Not available.
UV 0 out of 12
Pollen 7.00 out of 12
Air Quality Not available.
Flu Activity Not available.
METAR KOVL 290313Z AUTO 12007KT 10SM OVC006 20/18 A2988 RMK AO2

More Conditions Fewer Conditions

10-Day Weather Forecast

Almanac

Astronomy

Aug. 28, 2014 Rise Set
Actual Time 6:38 AM CDT 8:04 PM CDT
Civil Twilight 6:07 AM CDT 8:35 PM CDT
Nautical Twilight 5:30 AM CDT 9:12 PM CDT
Astronomical Twilight 4:50 AM CDT 9:51 PM CDT
Moon 9:40 AM CDT (8/28) 9:18 PM CDT (8/28)
Length of Visible Light 14h 27m
Length of Day
13h 26m
Tomorrow will be 2m 58s shorter.
Waxing Crescent, 11% of the Moon is Illuminated
Today
Waxing Crescent
Sep 2
First Quarter
Sep 8
Full
Sep 15
Last Quarter
Sep 24
New

Today's Extremes

State Highs State Lows

Community

WunderPhotos

Upload Photos

1,748,175 photos uploaded!

Nearby

Snow Depth

Station Depth Elevation
No new snow has been reported.

Earthquake Activity

City Distance Mag. Time & Date
No recent earthquake activity has been reported nearby.
Minimum magnitude displayed is 2.5.

Coastal Water Temperatures

Place Temperature
No Stations Reporting

Nearby Weather Stations